sensor_id;sensor_type;location;lat;lon;timestamp;P1;durP1;ratioP1;P2;durP2;ratioP2
21206;SDS011;10761;48.532;8.026;2023-03-16T00:00:45;3.35;;;1.20;;
21206;SDS011;10761;48.532;8.026;2023-03-16T00:03:12;2.65;;;1.13;;
21206;SDS011;10761;48.532;8.026;2023-03-16T00:05:43;3.28;;;1.10;;
21206;SDS011;10761;48.532;8.026;2023-03-16T00:08:10;2.97;;;1.25;;
21206;SDS011;10761;48.532;8.026;2023-03-16T00:10:36;1.95;;;1.00;;
21206;SDS011;10761;48.532;8.026;2023-03-16T00:13:02;2.85;;;1.13;;
21206;SDS011;10761;48.532;8.026;2023-03-16T00:15:27;1.85;;;1.30;;
21206;SDS011;10761;48.532;8.026;2023-03-16T00:17:53;2.65;;;1.38;;
21206;SDS011;10761;48.532;8.026;2023-03-16T00:20:19;1.75;;;0.82;;
21206;SDS011;10761;48.532;8.026;2023-03-16T00:22:45;2.22;;;1.30;;
21206;SDS011;10761;48.532;8.026;2023-03-16T00:25:11;3.10;;;1.10;;
21206;SDS011;10761;48.532;8.026;2023-03-16T00:27:38;1.05;;;0.80;;
21206;SDS011;10761;48.532;8.026;2023-03-16T00:30:05;5.32;;;1.20;;
21206;SDS011;10761;48.532;8.026;2023-03-16T00:32:32;2.15;;;0.90;;
21206;SDS011;10761;48.532;8.026;2023-03-16T00:34:59;3.90;;;1.00;;
21206;SDS011;10761;48.532;8.026;2023-03-16T00:37:26;3.60;;;0.82;;
21206;SDS011;10761;48.532;8.026;2023-03-16T00:39:52;3.25;;;0.95;;
21206;SDS011;10761;48.532;8.026;2023-03-16T00:42:21;3.15;;;0.93;;
21206;SDS011;10761;48.532;8.026;2023-03-16T00:44:52;2.10;;;1.60;;
21206;SDS011;10761;48.532;8.026;2023-03-16T00:47:22;3.35;;;1.83;;
21206;SDS011;10761;48.532;8.026;2023-03-16T00:49:48;4.43;;;1.80;;
21206;SDS011;10761;48.532;8.026;2023-03-16T00:52:14;3.15;;;1.00;;
21206;SDS011;10761;48.532;8.026;2023-03-16T00:54:44;1.98;;;0.90;;
21206;SDS011;10761;48.532;8.026;2023-03-16T00:57:11;2.40;;;0.95;;
21206;SDS011;10761;48.532;8.026;2023-03-16T00:59:38;2.20;;;1.10;;
21206;SDS011;10761;48.532;8.026;2023-03-16T01:02:05;2.13;;;1.10;;
21206;SDS011;10761;48.532;8.026;2023-03-16T01:04:32;2.75;;;1.20;;
21206;SDS011;10761;48.532;8.026;2023-03-16T01:07:00;1.52;;;1.20;;
21206;SDS011;10761;48.532;8.026;2023-03-16T01:09:27;2.15;;;1.27;;
21206;SDS011;10761;48.532;8.026;2023-03-16T01:11:52;1.52;;;1.10;;
21206;SDS011;10761;48.532;8.026;2023-03-16T01:14:18;2.53;;;1.15;;
21206;SDS011;10761;48.532;8.026;2023-03-16T01:16:46;2.58;;;1.10;;
21206;SDS011;10761;48.532;8.026;2023-03-16T01:19:12;3.63;;;1.33;;
21206;SDS011;10761;48.532;8.026;2023-03-16T01:21:41;1.65;;;1.10;;
21206;SDS011;10761;48.532;8.026;2023-03-16T01:24:07;2.00;;;1.15;;
21206;SDS011;10761;48.532;8.026;2023-03-16T01:26:33;1.25;;;1.00;;
21206;SDS011;10761;48.532;8.026;2023-03-16T01:29:00;2.42;;;1.30;;
21206;SDS011;10761;48.532;8.026;2023-03-16T01:31:26;1.13;;;1.00;;
21206;SDS011;10761;48.532;8.026;2023-03-16T01:33:53;1.33;;;0.90;;
21206;SDS011;10761;48.532;8.026;2023-03-16T01:36:19;2.25;;;1.10;;
21206;SDS011;10761;48.532;8.026;2023-03-16T01:38:45;4.55;;;1.08;;
21206;SDS011;10761;48.532;8.026;2023-03-16T01:41:11;2.15;;;0.80;;
21206;SDS011;10761;48.532;8.026;2023-03-16T01:43:38;2.45;;;0.80;;
21206;SDS011;10761;48.532;8.026;2023-03-16T01:51:18;1.15;;;0.73;;
21206;SDS011;10761;48.532;8.026;2023-03-16T01:53:52;2.35;;;0.95;;
21206;SDS011;10761;48.532;8.026;2023-03-16T01:56:24;1.80;;;1.58;;
21206;SDS011;10761;48.532;8.026;2023-03-16T01:58:58;3.05;;;1.40;;
21206;SDS011;10761;48.532;8.026;2023-03-16T02:01:26;2.42;;;1.00;;
21206;SDS011;10761;48.532;8.026;2023-03-16T02:04:04;1.52;;;1.00;;
21206;SDS011;10761;48.532;8.026;2023-03-16T02:06:38;1.77;;;1.08;;
21206;SDS011;10761;48.532;8.026;2023-03-16T02:09:04;1.38;;;0.90;;
21206;SDS011;10761;48.532;8.026;2023-03-16T02:11:31;1.25;;;1.05;;
21206;SDS011;10761;48.532;8.026;2023-03-16T02:13:59;3.25;;;0.95;;
21206;SDS011;10761;48.532;8.026;2023-03-16T02:16:30;1.20;;;0.88;;
21206;SDS011;10761;48.532;8.026;2023-03-16T02:18:55;2.17;;;1.10;;
21206;SDS011;10761;48.532;8.026;2023-03-16T02:21:30;1.77;;;0.80;;
21206;SDS011;10761;48.532;8.026;2023-03-16T02:24:02;1.88;;;0.90;;
21206;SDS011;10761;48.532;8.026;2023-03-16T02:26:30;2.58;;;0.80;;
21206;SDS011;10761;48.532;8.026;2023-03-16T02:32:13;1.67;;;0.80;;
21206;SDS011;10761;48.532;8.026;2023-03-16T02:34:40;2.78;;;0.90;;
21206;SDS011;10761;48.532;8.026;2023-03-16T02:37:07;0.82;;;0.73;;
21206;SDS011;10761;48.532;8.026;2023-03-16T02:39:33;2.60;;;1.00;;
21206;SDS011;10761;48.532;8.026;2023-03-16T02:41:59;2.70;;;1.30;;
21206;SDS011;10761;48.532;8.026;2023-03-16T02:44:26;1.50;;;0.88;;
21206;SDS011;10761;48.532;8.026;2023-03-16T02:46:59;1.40;;;0.80;;
21206;SDS011;10761;48.532;8.026;2023-03-16T02:49:34;4.13;;;1.10;;
21206;SDS011;10761;48.532;8.026;2023-03-16T02:54:28;1.88;;;1.10;;
21206;SDS011;10761;48.532;8.026;2023-03-16T02:56:54;1.75;;;0.73;;
21206;SDS011;10761;48.532;8.026;2023-03-16T02:59:19;2.60;;;1.05;;
21206;SDS011;10761;48.532;8.026;2023-03-16T03:01:45;2.60;;;1.40;;
21206;SDS011;10761;48.532;8.026;2023-03-16T03:04:11;3.72;;;1.90;;
21206;SDS011;10761;48.532;8.026;2023-03-16T03:06:37;2.15;;;1.20;;
21206;SDS011;10761;48.532;8.026;2023-03-16T03:09:03;2.53;;;1.70;;
21206;SDS011;10761;48.532;8.026;2023-03-16T03:11:29;2.53;;;1.55;;
21206;SDS011;10761;48.532;8.026;2023-03-16T03:13:54;1.70;;;1.20;;
21206;SDS011;10761;48.532;8.026;2023-03-16T03:16:20;1.73;;;0.93;;
21206;SDS011;10761;48.532;8.026;2023-03-16T03:18:46;3.80;;;1.13;;
21206;SDS011;10761;48.532;8.026;2023-03-16T03:21:12;2.47;;;1.10;;
21206;SDS011;10761;48.532;8.026;2023-03-16T03:23:38;1.88;;;1.10;;
21206;SDS011;10761;48.532;8.026;2023-03-16T03:26:04;3.42;;;1.17;;
21206;SDS011;10761;48.532;8.026;2023-03-16T03:28:30;2.67;;;0.80;;
21206;SDS011;10761;48.532;8.026;2023-03-16T03:30:58;1.05;;;0.80;;
21206;SDS011;10761;48.532;8.026;2023-03-16T03:33:25;2.97;;;1.00;;
21206;SDS011;10761;48.532;8.026;2023-03-16T03:35:52;2.45;;;1.08;;
21206;SDS011;10761;48.532;8.026;2023-03-16T03:38:20;3.75;;;1.20;;
21206;SDS011;10761;48.532;8.026;2023-03-16T03:40:47;4.07;;;1.10;;
21206;SDS011;10761;48.532;8.026;2023-03-16T03:43:16;3.28;;;1.50;;
21206;SDS011;10761;48.532;8.026;2023-03-16T03:45:42;1.85;;;1.10;;
21206;SDS011;10761;48.532;8.026;2023-03-16T03:48:08;1.80;;;1.00;;
21206;SDS011;10761;48.532;8.026;2023-03-16T03:50:33;4.40;;;1.27;;
21206;SDS011;10761;48.532;8.026;2023-03-16T03:52:59;2.15;;;1.30;;
21206;SDS011;10761;48.532;8.026;2023-03-16T03:55:25;3.63;;;1.40;;
21206;SDS011;10761;48.532;8.026;2023-03-16T03:57:50;3.13;;;1.40;;
21206;SDS011;10761;48.532;8.026;2023-03-16T04:00:16;2.28;;;1.20;;
21206;SDS011;10761;48.532;8.026;2023-03-16T04:02:44;3.25;;;1.30;;
21206;SDS011;10761;48.532;8.026;2023-03-16T04:05:10;3.20;;;1.73;;
21206;SDS011;10761;48.532;8.026;2023-03-16T04:07:36;4.63;;;1.55;;
21206;SDS011;10761;48.532;8.026;2023-03-16T04:10:02;2.83;;;1.40;;
21206;SDS011;10761;48.532;8.026;2023-03-16T04:12:29;3.38;;;1.70;;
21206;SDS011;10761;48.532;8.026;2023-03-16T04:14:54;2.45;;;1.50;;
21206;SDS011;10761;48.532;8.026;2023-03-16T04:17:20;3.25;;;1.70;;
21206;SDS011;10761;48.532;8.026;2023-03-16T04:19:47;4.80;;;1.95;;
21206;SDS011;10761;48.532;8.026;2023-03-16T04:22:13;2.75;;;1.60;;
21206;SDS011;10761;48.532;8.026;2023-03-16T04:24:38;4.18;;;2.20;;
21206;SDS011;10761;48.532;8.026;2023-03-16T04:27:04;7.70;;;2.05;;
21206;SDS011;10761;48.532;8.026;2023-03-16T04:29:30;4.50;;;2.50;;
21206;SDS011;10761;48.532;8.026;2023-03-16T04:31:56;3.72;;;2.10;;
21206;SDS011;10761;48.532;8.026;2023-03-16T04:34:21;5.28;;;1.88;;
21206;SDS011;10761;48.532;8.026;2023-03-16T04:36:50;4.50;;;2.20;;
21206;SDS011;10761;48.532;8.026;2023-03-16T04:39:17;5.65;;;2.50;;
21206;SDS011;10761;48.532;8.026;2023-03-16T04:41:43;3.20;;;2.30;;
21206;SDS011;10761;48.532;8.026;2023-03-16T04:44:09;3.00;;;2.08;;
21206;SDS011;10761;48.532;8.026;2023-03-16T04:46:34;5.43;;;2.50;;
21206;SDS011;10761;48.532;8.026;2023-03-16T04:49:00;3.28;;;2.22;;
21206;SDS011;10761;48.532;8.026;2023-03-16T04:51:26;5.97;;;2.90;;
21206;SDS011;10761;48.532;8.026;2023-03-16T04:53:52;5.88;;;2.60;;
21206;SDS011;10761;48.532;8.026;2023-03-16T04:56:18;3.92;;;2.42;;
21206;SDS011;10761;48.532;8.026;2023-03-16T04:58:44;3.70;;;2.38;;
21206;SDS011;10761;48.532;8.026;2023-03-16T05:01:14;4.07;;;2.72;;
21206;SDS011;10761;48.532;8.026;2023-03-16T05:03:41;6.72;;;2.95;;
21206;SDS011;10761;48.532;8.026;2023-03-16T05:06:07;4.10;;;2.47;;
21206;SDS011;10761;48.532;8.026;2023-03-16T05:08:34;5.32;;;2.78;;
21206;SDS011;10761;48.532;8.026;2023-03-16T05:11:00;4.07;;;2.90;;
21206;SDS011;10761;48.532;8.026;2023-03-16T05:13:26;12.82;;;9.35;;
21206;SDS011;10761;48.532;8.026;2023-03-16T05:15:51;19.90;;;17.80;;
21206;SDS011;10761;48.532;8.026;2023-03-16T05:18:20;15.73;;;11.38;;
21206;SDS011;10761;48.532;8.026;2023-03-16T05:20:52;6.65;;;5.70;;
21206;SDS011;10761;48.532;8.026;2023-03-16T05:23:20;9.43;;;5.88;;
21206;SDS011;10761;48.532;8.026;2023-03-16T05:25:47;6.30;;;4.60;;
21206;SDS011;10761;48.532;8.026;2023-03-16T05:28:13;6.93;;;4.10;;
21206;SDS011;10761;48.532;8.026;2023-03-16T05:30:39;5.53;;;3.95;;
21206;SDS011;10761;48.532;8.026;2023-03-16T05:33:06;3.40;;;2.50;;
21206;SDS011;10761;48.532;8.026;2023-03-16T05:35:31;4.28;;;1.73;;
21206;SDS011;10761;48.532;8.026;2023-03-16T05:37:57;3.08;;;1.95;;
21206;SDS011;10761;48.532;8.026;2023-03-16T05:40:23;3.97;;;2.05;;
21206;SDS011;10761;48.532;8.026;2023-03-16T05:42:52;3.80;;;2.30;;
21206;SDS011;10761;48.532;8.026;2023-03-16T05:45:19;3.40;;;2.20;;
21206;SDS011;10761;48.532;8.026;2023-03-16T05:47:44;6.03;;;2.10;;
21206;SDS011;10761;48.532;8.026;2023-03-16T05:50:11;3.95;;;2.10;;
21206;SDS011;10761;48.532;8.026;2023-03-16T05:52:37;3.60;;;2.53;;
21206;SDS011;10761;48.532;8.026;2023-03-16T05:55:05;4.70;;;2.80;;
21206;SDS011;10761;48.532;8.026;2023-03-16T05:57:32;5.63;;;2.60;;
21206;SDS011;10761;48.532;8.026;2023-03-16T05:59:58;6.53;;;3.03;;
21206;SDS011;10761;48.532;8.026;2023-03-16T06:02:25;4.85;;;2.70;;
21206;SDS011;10761;48.532;8.026;2023-03-16T06:04:51;5.20;;;2.50;;
21206;SDS011;10761;48.532;8.026;2023-03-16T06:07:17;8.13;;;3.63;;
21206;SDS011;10761;48.532;8.026;2023-03-16T06:09:42;3.95;;;2.83;;
21206;SDS011;10761;48.532;8.026;2023-03-16T06:12:08;4.22;;;2.83;;
21206;SDS011;10761;48.532;8.026;2023-03-16T06:14:34;6.28;;;2.58;;
21206;SDS011;10761;48.532;8.026;2023-03-16T06:17:00;5.50;;;3.17;;
21206;SDS011;10761;48.532;8.026;2023-03-16T06:19:25;4.00;;;2.92;;
21206;SDS011;10761;48.532;8.026;2023-03-16T06:21:51;6.97;;;4.50;;
21206;SDS011;10761;48.532;8.026;2023-03-16T06:24:17;4.30;;;2.75;;
21206;SDS011;10761;48.532;8.026;2023-03-16T06:26:42;4.00;;;3.30;;
21206;SDS011;10761;48.532;8.026;2023-03-16T06:29:08;6.68;;;2.90;;
21206;SDS011;10761;48.532;8.026;2023-03-16T06:31:34;4.60;;;2.75;;
21206;SDS011;10761;48.532;8.026;2023-03-16T06:34:00;5.22;;;3.58;;
21206;SDS011;10761;48.532;8.026;2023-03-16T06:36:26;7.47;;;3.67;;
21206;SDS011;10761;48.532;8.026;2023-03-16T06:38:52;6.20;;;3.40;;
21206;SDS011;10761;48.532;8.026;2023-03-16T06:41:18;5.43;;;3.72;;
21206;SDS011;10761;48.532;8.026;2023-03-16T06:43:43;5.57;;;3.85;;
21206;SDS011;10761;48.532;8.026;2023-03-16T06:46:09;6.15;;;3.50;;
21206;SDS011;10761;48.532;8.026;2023-03-16T06:48:35;6.47;;;3.80;;
21206;SDS011;10761;48.532;8.026;2023-03-16T06:51:00;6.75;;;3.55;;
21206;SDS011;10761;48.532;8.026;2023-03-16T06:53:26;4.88;;;3.53;;
21206;SDS011;10761;48.532;8.026;2023-03-16T06:55:52;4.60;;;3.67;;
21206;SDS011;10761;48.532;8.026;2023-03-16T06:58:18;7.10;;;3.90;;
21206;SDS011;10761;48.532;8.026;2023-03-16T07:00:43;5.55;;;4.00;;
21206;SDS011;10761;48.532;8.026;2023-03-16T07:03:09;7.18;;;4.30;;
21206;SDS011;10761;48.532;8.026;2023-03-16T07:05:35;8.35;;;4.88;;
21206;SDS011;10761;48.532;8.026;2023-03-16T07:08:00;6.13;;;4.28;;
21206;SDS011;10761;48.532;8.026;2023-03-16T07:10:26;4.18;;;3.42;;
21206;SDS011;10761;48.532;8.026;2023-03-16T07:12:51;7.43;;;4.00;;
21206;SDS011;10761;48.532;8.026;2023-03-16T07:15:17;6.20;;;4.10;;
21206;SDS011;10761;48.532;8.026;2023-03-16T07:17:43;15.43;;;7.68;;
21206;SDS011;10761;48.532;8.026;2023-03-16T07:20:09;8.30;;;5.85;;
21206;SDS011;10761;48.532;8.026;2023-03-16T07:22:36;7.50;;;4.50;;
21206;SDS011;10761;48.532;8.026;2023-03-16T07:25:03;6.78;;;3.80;;
21206;SDS011;10761;48.532;8.026;2023-03-16T07:27:30;5.85;;;4.13;;
21206;SDS011;10761;48.532;8.026;2023-03-16T07:29:56;5.28;;;3.70;;
21206;SDS011;10761;48.532;8.026;2023-03-16T07:32:22;6.03;;;3.40;;
21206;SDS011;10761;48.532;8.026;2023-03-16T07:34:47;4.68;;;3.20;;
21206;SDS011;10761;48.532;8.026;2023-03-16T07:37:13;5.90;;;3.92;;
21206;SDS011;10761;48.532;8.026;2023-03-16T07:39:40;4.32;;;3.63;;
21206;SDS011;10761;48.532;8.026;2023-03-16T07:42:06;6.72;;;3.65;;
21206;SDS011;10761;48.532;8.026;2023-03-16T07:44:32;4.28;;;3.03;;
21206;SDS011;10761;48.532;8.026;2023-03-16T07:46:57;5.25;;;3.42;;
21206;SDS011;10761;48.532;8.026;2023-03-16T07:49:23;5.10;;;3.58;;
21206;SDS011;10761;48.532;8.026;2023-03-16T07:51:49;4.90;;;3.40;;
21206;SDS011;10761;48.532;8.026;2023-03-16T07:54:15;4.10;;;3.15;;
21206;SDS011;10761;48.532;8.026;2023-03-16T07:56:40;4.55;;;3.28;;
21206;SDS011;10761;48.532;8.026;2023-03-16T07:59:06;4.57;;;3.10;;
21206;SDS011;10761;48.532;8.026;2023-03-16T08:01:32;5.43;;;3.55;;
21206;SDS011;10761;48.532;8.026;2023-03-16T08:03:58;5.05;;;3.42;;
21206;SDS011;10761;48.532;8.026;2023-03-16T08:06:25;5.50;;;3.53;;
21206;SDS011;10761;48.532;8.026;2023-03-16T08:08:50;4.55;;;3.17;;
21206;SDS011;10761;48.532;8.026;2023-03-16T08:11:16;5.82;;;3.20;;
21206;SDS011;10761;48.532;8.026;2023-03-16T08:13:47;4.00;;;2.92;;
21206;SDS011;10761;48.532;8.026;2023-03-16T08:16:18;6.10;;;3.15;;
21206;SDS011;10761;48.532;8.026;2023-03-16T08:18:47;2.88;;;2.63;;
21206;SDS011;10761;48.532;8.026;2023-03-16T08:21:14;4.55;;;2.90;;
21206;SDS011;10761;48.532;8.026;2023-03-16T08:23:41;4.65;;;3.10;;
21206;SDS011;10761;48.532;8.026;2023-03-16T08:26:13;3.47;;;2.80;;
21206;SDS011;10761;48.532;8.026;2023-03-16T08:28:39;4.88;;;2.72;;
21206;SDS011;10761;48.532;8.026;2023-03-16T08:31:06;3.67;;;2.67;;
21206;SDS011;10761;48.532;8.026;2023-03-16T08:33:32;3.25;;;2.53;;
21206;SDS011;10761;48.532;8.026;2023-03-16T08:35:59;4.85;;;2.92;;
21206;SDS011;10761;48.532;8.026;2023-03-16T08:38:26;5.38;;;4.28;;
21206;SDS011;10761;48.532;8.026;2023-03-16T08:40:51;9.65;;;5.35;;
21206;SDS011;10761;48.532;8.026;2023-03-16T08:43:17;7.25;;;5.13;;
21206;SDS011;10761;48.532;8.026;2023-03-16T08:45:43;5.10;;;3.72;;
21206;SDS011;10761;48.532;8.026;2023-03-16T08:48:09;4.75;;;3.53;;
21206;SDS011;10761;48.532;8.026;2023-03-16T08:50:38;4.97;;;3.50;;
21206;SDS011;10761;48.532;8.026;2023-03-16T08:53:05;7.25;;;3.50;;
21206;SDS011;10761;48.532;8.026;2023-03-16T08:55:31;5.63;;;2.90;;
21206;SDS011;10761;48.532;8.026;2023-03-16T08:57:56;4.38;;;2.60;;
21206;SDS011;10761;48.532;8.026;2023-03-16T09:00:22;3.40;;;2.58;;
21206;SDS011;10761;48.532;8.026;2023-03-16T09:02:48;4.15;;;2.78;;
21206;SDS011;10761;48.532;8.026;2023-03-16T09:05:14;3.58;;;2.60;;
21206;SDS011;10761;48.532;8.026;2023-03-16T09:07:40;5.40;;;2.75;;
21206;SDS011;10761;48.532;8.026;2023-03-16T09:10:06;5.40;;;3.00;;
21206;SDS011;10761;48.532;8.026;2023-03-16T09:12:35;5.53;;;3.03;;
21206;SDS011;10761;48.532;8.026;2023-03-16T09:15:02;3.65;;;2.65;;
21206;SDS011;10761;48.532;8.026;2023-03-16T09:17:28;5.63;;;3.55;;
21206;SDS011;10761;48.532;8.026;2023-03-16T09:19:53;6.40;;;3.40;;
21206;SDS011;10761;48.532;8.026;2023-03-16T09:22:19;4.53;;;3.00;;
21206;SDS011;10761;48.532;8.026;2023-03-16T09:24:46;4.35;;;3.38;;
21206;SDS011;10761;48.532;8.026;2023-03-16T09:27:13;4.40;;;2.92;;
21206;SDS011;10761;48.532;8.026;2023-03-16T09:29:39;9.52;;;4.30;;
21206;SDS011;10761;48.532;8.026;2023-03-16T09:32:06;5.30;;;3.90;;
21206;SDS011;10761;48.532;8.026;2023-03-16T09:34:33;5.78;;;3.45;;
21206;SDS011;10761;48.532;8.026;2023-03-16T09:36:59;5.72;;;3.30;;
21206;SDS011;10761;48.532;8.026;2023-03-16T09:39:25;5.00;;;3.03;;
21206;SDS011;10761;48.532;8.026;2023-03-16T09:41:55;6.07;;;3.38;;
21206;SDS011;10761;48.532;8.026;2023-03-16T09:47:08;4.97;;;3.72;;
21206;SDS011;10761;48.532;8.026;2023-03-16T09:49:40;5.20;;;3.47;;
21206;SDS011;10761;48.532;8.026;2023-03-16T09:57:46;7.72;;;3.95;;
21206;SDS011;10761;48.532;8.026;2023-03-16T10:00:16;5.30;;;3.80;;
21206;SDS011;10761;48.532;8.026;2023-03-16T10:05:58;3.65;;;2.95;;
21206;SDS011;10761;48.532;8.026;2023-03-16T10:11:16;7.28;;;3.30;;
21206;SDS011;10761;48.532;8.026;2023-03-16T10:13:47;3.95;;;2.95;;
21206;SDS011;10761;48.532;8.026;2023-03-16T10:19:21;5.53;;;3.40;;
21206;SDS011;10761;48.532;8.026;2023-03-16T10:21:49;4.68;;;3.28;;
21206;SDS011;10761;48.532;8.026;2023-03-16T10:27:11;5.10;;;3.60;;
21206;SDS011;10761;48.532;8.026;2023-03-16T10:29:42;4.70;;;3.60;;
21206;SDS011;10761;48.532;8.026;2023-03-16T10:32:12;5.63;;;3.88;;
21206;SDS011;10761;48.532;8.026;2023-03-16T10:37:26;5.53;;;4.40;;
21206;SDS011;10761;48.532;8.026;2023-03-16T10:39:54;7.05;;;4.70;;
21206;SDS011;10761;48.532;8.026;2023-03-16T10:42:21;5.63;;;4.40;;
21206;SDS011;10761;48.532;8.026;2023-03-16T10:44:54;5.78;;;4.57;;
21206;SDS011;10761;48.532;8.026;2023-03-16T10:47:22;8.38;;;4.00;;
21206;SDS011;10761;48.532;8.026;2023-03-16T10:49:52;5.93;;;4.57;;
21206;SDS011;10761;48.532;8.026;2023-03-16T10:52:19;6.10;;;3.90;;
21206;SDS011;10761;48.532;8.026;2023-03-16T10:55:11;9.15;;;4.30;;
21206;SDS011;10761;48.532;8.026;2023-03-16T10:57:54;4.95;;;4.05;;
21206;SDS011;10761;48.532;8.026;2023-03-16T11:00:37;6.95;;;3.95;;
21206;SDS011;10761;48.532;8.026;2023-03-16T11:03:17;5.82;;;4.43;;
21206;SDS011;10761;48.532;8.026;2023-03-16T11:05:47;5.93;;;3.72;;
21206;SDS011;10761;48.532;8.026;2023-03-16T11:08:21;4.88;;;3.83;;
21206;SDS011;10761;48.532;8.026;2023-03-16T11:10:58;5.45;;;3.60;;
21206;SDS011;10761;48.532;8.026;2023-03-16T11:13:33;8.20;;;4.28;;
21206;SDS011;10761;48.532;8.026;2023-03-16T11:18:58;7.97;;;3.53;;
21206;SDS011;10761;48.532;8.026;2023-03-16T11:25:08;5.15;;;3.50;;
21206;SDS011;10761;48.532;8.026;2023-03-16T11:27:03;3.65;;;2.85;;
21206;SDS011;10761;48.532;8.026;2023-03-16T11:32:26;4.93;;;3.42;;
21206;SDS011;10761;48.532;8.026;2023-03-16T11:34:57;7.03;;;3.47;;
21206;SDS011;10761;48.532;8.026;2023-03-16T11:37:43;5.85;;;3.30;;
21206;SDS011;10761;48.532;8.026;2023-03-16T11:40:22;4.70;;;3.40;;
21206;SDS011;10761;48.532;8.026;2023-03-16T11:43:14;3.88;;;3.10;;
21206;SDS011;10761;48.532;8.026;2023-03-16T11:45:51;3.42;;;3.00;;
21206;SDS011;10761;48.532;8.026;2023-03-16T11:51:34;5.03;;;3.20;;
21206;SDS011;10761;48.532;8.026;2023-03-16T12:00:06;5.07;;;3.33;;
21206;SDS011;10761;48.532;8.026;2023-03-16T12:08:13;4.15;;;2.97;;
21206;SDS011;10761;48.532;8.026;2023-03-16T12:11:03;5.03;;;2.92;;
21206;SDS011;10761;48.532;8.026;2023-03-16T12:13:41;6.22;;;2.88;;
21206;SDS011;10761;48.532;8.026;2023-03-16T12:16:14;3.80;;;2.70;;
21206;SDS011;10761;48.532;8.026;2023-03-16T12:18:49;5.15;;;3.10;;
21206;SDS011;10761;48.532;8.026;2023-03-16T12:21:46;4.82;;;2.63;;
21206;SDS011;10761;48.532;8.026;2023-03-16T12:24:20;2.80;;;2.25;;
21206;SDS011;10761;48.532;8.026;2023-03-16T12:26:51;4.70;;;2.65;;
21206;SDS011;10761;48.532;8.026;2023-03-16T12:35:02;4.03;;;2.83;;
21206;SDS011;10761;48.532;8.026;2023-03-16T12:40:38;6.20;;;2.83;;
21206;SDS011;10761;48.532;8.026;2023-03-16T12:43:30;4.10;;;2.30;;
21206;SDS011;10761;48.532;8.026;2023-03-16T12:46:12;4.03;;;2.25;;
21206;SDS011;10761;48.532;8.026;2023-03-16T12:48:53;2.95;;;2.42;;
21206;SDS011;10761;48.532;8.026;2023-03-16T12:51:33;3.83;;;2.50;;
21206;SDS011;10761;48.532;8.026;2023-03-16T12:54:00;4.55;;;2.35;;
21206;SDS011;10761;48.532;8.026;2023-03-16T12:56:33;6.93;;;3.05;;
21206;SDS011;10761;48.532;8.026;2023-03-16T12:59:07;3.67;;;2.65;;
21206;SDS011;10761;48.532;8.026;2023-03-16T13:01:42;2.95;;;2.45;;
21206;SDS011;10761;48.532;8.026;2023-03-16T13:06:40;4.68;;;2.30;;
21206;SDS011;10761;48.532;8.026;2023-03-16T13:11:40;4.22;;;2.28;;
21206;SDS011;10761;48.532;8.026;2023-03-16T13:14:15;4.32;;;2.15;;
21206;SDS011;10761;48.532;8.026;2023-03-16T13:17:02;2.78;;;2.20;;
21206;SDS011;10761;48.532;8.026;2023-03-16T13:22:40;4.70;;;2.10;;
21206;SDS011;10761;48.532;8.026;2023-03-16T13:27:43;7.18;;;2.40;;
21206;SDS011;10761;48.532;8.026;2023-03-16T13:30:15;4.15;;;2.58;;
21206;SDS011;10761;48.532;8.026;2023-03-16T13:32:42;2.97;;;2.35;;
21206;SDS011;10761;48.532;8.026;2023-03-16T13:35:10;6.00;;;3.00;;
21206;SDS011;10761;48.532;8.026;2023-03-16T13:37:39;5.25;;;3.03;;
21206;SDS011;10761;48.532;8.026;2023-03-16T13:40:17;2.50;;;2.30;;
21206;SDS011;10761;48.532;8.026;2023-03-16T13:42:49;7.05;;;2.20;;
21206;SDS011;10761;48.532;8.026;2023-03-16T13:45:36;6.45;;;2.47;;
21206;SDS011;10761;48.532;8.026;2023-03-16T13:48:02;5.47;;;2.50;;
21206;SDS011;10761;48.532;8.026;2023-03-16T13:50:32;4.65;;;2.35;;
21206;SDS011;10761;48.532;8.026;2023-03-16T13:52:59;3.38;;;1.80;;
21206;SDS011;10761;48.532;8.026;2023-03-16T13:55:31;4.50;;;2.17;;
21206;SDS011;10761;48.532;8.026;2023-03-16T13:57:59;3.83;;;1.88;;
21206;SDS011;10761;48.532;8.026;2023-03-16T14:00:35;3.25;;;1.73;;
21206;SDS011;10761;48.532;8.026;2023-03-16T14:03:16;3.03;;;2.10;;
21206;SDS011;10761;48.532;8.026;2023-03-16T14:05:43;4.70;;;1.80;;
21206;SDS011;10761;48.532;8.026;2023-03-16T14:08:13;2.35;;;1.73;;
21206;SDS011;10761;48.532;8.026;2023-03-16T14:10:39;4.00;;;1.75;;
21206;SDS011;10761;48.532;8.026;2023-03-16T14:21:07;5.30;;;2.00;;
21206;SDS011;10761;48.532;8.026;2023-03-16T14:23:39;3.53;;;1.80;;
21206;SDS011;10761;48.532;8.026;2023-03-16T14:26:19;3.42;;;1.80;;
21206;SDS011;10761;48.532;8.026;2023-03-16T14:28:52;7.18;;;1.85;;
21206;SDS011;10761;48.532;8.026;2023-03-16T14:31:19;2.83;;;1.70;;
21206;SDS011;10761;48.532;8.026;2023-03-16T14:33:45;3.88;;;1.70;;
21206;SDS011;10761;48.532;8.026;2023-03-16T14:36:15;2.60;;;1.70;;
21206;SDS011;10761;48.532;8.026;2023-03-16T14:38:43;5.25;;;1.80;;
21206;SDS011;10761;48.532;8.026;2023-03-16T14:41:28;1.80;;;1.63;;
21206;SDS011;10761;48.532;8.026;2023-03-16T14:43:59;4.25;;;1.83;;
21206;SDS011;10761;48.532;8.026;2023-03-16T14:49:02;5.85;;;1.58;;
21206;SDS011;10761;48.532;8.026;2023-03-16T14:51:34;6.68;;;1.83;;
21206;SDS011;10761;48.532;8.026;2023-03-16T14:54:13;2.15;;;1.67;;
21206;SDS011;10761;48.532;8.026;2023-03-16T14:56:41;2.63;;;2.00;;
21206;SDS011;10761;48.532;8.026;2023-03-16T14:59:08;3.90;;;2.10;;
21206;SDS011;10761;48.532;8.026;2023-03-16T15:01:34;4.68;;;2.05;;
21206;SDS011;10761;48.532;8.026;2023-03-16T15:04:00;3.50;;;2.05;;
21206;SDS011;10761;48.532;8.026;2023-03-16T15:06:27;2.75;;;1.85;;
21206;SDS011;10761;48.532;8.026;2023-03-16T15:08:55;3.45;;;1.63;;
21206;SDS011;10761;48.532;8.026;2023-03-16T15:11:24;4.35;;;1.73;;
21206;SDS011;10761;48.532;8.026;2023-03-16T15:13:50;3.17;;;1.77;;
21206;SDS011;10761;48.532;8.026;2023-03-16T15:16:17;2.85;;;1.90;;
21206;SDS011;10761;48.532;8.026;2023-03-16T15:18:44;2.88;;;1.95;;
21206;SDS011;10761;48.532;8.026;2023-03-16T15:21:10;5.47;;;1.90;;
21206;SDS011;10761;48.532;8.026;2023-03-16T15:23:41;3.50;;;2.03;;
21206;SDS011;10761;48.532;8.026;2023-03-16T15:26:11;3.35;;;2.13;;
21206;SDS011;10761;48.532;8.026;2023-03-16T15:28:38;2.75;;;1.80;;
21206;SDS011;10761;48.532;8.026;2023-03-16T15:31:04;3.33;;;2.10;;
21206;SDS011;10761;48.532;8.026;2023-03-16T15:33:30;3.13;;;2.00;;
21206;SDS011;10761;48.532;8.026;2023-03-16T15:35:57;2.75;;;1.92;;
21206;SDS011;10761;48.532;8.026;2023-03-16T15:38:31;3.42;;;2.10;;
21206;SDS011;10761;48.532;8.026;2023-03-16T15:41:00;3.33;;;2.35;;
21206;SDS011;10761;48.532;8.026;2023-03-16T15:43:27;4.07;;;2.30;;
21206;SDS011;10761;48.532;8.026;2023-03-16T15:45:54;7.63;;;2.30;;
21206;SDS011;10761;48.532;8.026;2023-03-16T15:48:21;4.20;;;2.13;;
21206;SDS011;10761;48.532;8.026;2023-03-16T15:50:51;3.60;;;1.95;;
21206;SDS011;10761;48.532;8.026;2023-03-16T15:53:21;4.68;;;2.03;;
21206;SDS011;10761;48.532;8.026;2023-03-16T15:55:51;2.28;;;1.73;;
21206;SDS011;10761;48.532;8.026;2023-03-16T15:58:21;3.22;;;2.08;;
21206;SDS011;10761;48.532;8.026;2023-03-16T16:00:49;5.05;;;2.10;;
21206;SDS011;10761;48.532;8.026;2023-03-16T16:03:19;4.68;;;2.03;;
21206;SDS011;10761;48.532;8.026;2023-03-16T16:05:45;3.92;;;2.13;;
21206;SDS011;10761;48.532;8.026;2023-03-16T16:08:10;6.35;;;2.33;;
21206;SDS011;10761;48.532;8.026;2023-03-16T16:10:36;3.40;;;2.20;;
21206;SDS011;10761;48.532;8.026;2023-03-16T16:13:03;4.30;;;2.40;;
21206;SDS011;10761;48.532;8.026;2023-03-16T16:15:30;3.42;;;2.15;;
21206;SDS011;10761;48.532;8.026;2023-03-16T16:18:01;4.47;;;2.13;;
21206;SDS011;10761;48.532;8.026;2023-03-16T16:20:34;7.30;;;2.30;;
21206;SDS011;10761;48.532;8.026;2023-03-16T16:23:00;4.95;;;1.92;;